sensor_id;sensor_type;location;lat;lon;timestamp;pressure;altitude;pressure_sealevel;temperature;humidity
30021;BME280;16861;52.294;7.760;2023-03-13T00:01:22;98569.03;;;11.43;68.52
30021;BME280;16861;52.294;7.760;2023-03-13T00:03:49;98563.53;;;11.46;68.97
30021;BME280;16861;52.294;7.760;2023-03-13T00:06:16;98562.47;;;11.49;69.13
30021;BME280;16861;52.294;7.760;2023-03-13T00:08:43;98556.94;;;11.52;69.10
30021;BME280;16861;52.294;7.760;2023-03-13T00:11:11;98550.72;;;11.53;68.97
30021;BME280;16861;52.294;7.760;2023-03-13T00:13:38;98549.63;;;11.55;68.79
30021;BME280;16861;52.294;7.760;2023-03-13T00:16:09;98544.34;;;11.55;68.35
30021;BME280;16861;52.294;7.760;2023-03-13T00:18:36;98549.50;;;11.57;68.59
30021;BME280;16861;52.294;7.760;2023-03-13T00:21:08;98547.09;;;11.54;66.52
30021;BME280;16861;52.294;7.760;2023-03-13T00:23:36;98540.75;;;11.56;68.11
30021;BME280;16861;52.294;7.760;2023-03-13T00:26:11;98543.38;;;11.56;67.46
30021;BME280;16861;52.294;7.760;2023-03-13T00:28:39;98537.88;;;11.59;68.29
30021;BME280;16861;52.294;7.760;2023-03-13T00:33:38;98531.16;;;11.55;67.66
30021;BME280;16861;52.294;7.760;2023-03-13T00:36:10;98517.19;;;11.55;67.86
30021;BME280;16861;52.294;7.760;2023-03-13T00:38:37;98521.59;;;11.54;68.08
30021;BME280;16861;52.294;7.760;2023-03-13T00:41:07;98514.66;;;11.53;68.14
30021;BME280;16861;52.294;7.760;2023-03-13T00:43:34;98512.25;;;11.50;68.19
30021;BME280;16861;52.294;7.760;2023-03-13T00:46:01;98513.13;;;11.51;68.19
30021;BME280;16861;52.294;7.760;2023-03-13T00:48:27;98514.91;;;11.50;68.51
30021;BME280;16861;52.294;7.760;2023-03-13T00:50:54;98488.66;;;11.49;68.61
30021;BME280;16861;52.294;7.760;2023-03-13T00:53:21;98491.44;;;11.47;69.20
30021;BME280;16861;52.294;7.760;2023-03-13T00:55:55;98476.72;;;11.44;68.66
30021;BME280;16861;52.294;7.760;2023-03-13T00:58:23;98474.91;;;11.45;69.41
30021;BME280;16861;52.294;7.760;2023-03-13T01:00:50;98484.59;;;11.44;69.47
30021;BME280;16861;52.294;7.760;2023-03-13T01:03:18;98470.84;;;11.41;69.56
30021;BME280;16861;52.294;7.760;2023-03-13T01:05:54;98465.00;;;11.37;69.21
30021;BME280;16861;52.294;7.760;2023-03-13T01:08:20;98451.00;;;11.37;69.98
30021;BME280;16861;52.294;7.760;2023-03-13T01:13:29;98453.16;;;11.31;70.44
30021;BME280;16861;52.294;7.760;2023-03-13T01:15:56;98435.09;;;11.27;70.41
30021;BME280;16861;52.294;7.760;2023-03-13T01:18:23;98437.16;;;11.23;70.51
30021;BME280;16861;52.294;7.760;2023-03-13T01:20:49;98432.25;;;11.18;70.94
30021;BME280;16861;52.294;7.760;2023-03-13T01:23:15;98415.13;;;11.13;71.08
30021;BME280;16861;52.294;7.760;2023-03-13T01:25:42;98409.53;;;11.06;71.11
30021;BME280;16861;52.294;7.760;2023-03-13T01:28:08;98413.38;;;11.02;71.45
30021;BME280;16861;52.294;7.760;2023-03-13T01:30:35;98398.06;;;10.95;71.66
30021;BME280;16861;52.294;7.760;2023-03-13T01:33:01;98392.22;;;10.92;72.02
30021;BME280;16861;52.294;7.760;2023-03-13T01:35:28;98382.91;;;10.88;72.15
30021;BME280;16861;52.294;7.760;2023-03-13T01:37:54;98381.38;;;10.85;72.42
30021;BME280;16861;52.294;7.760;2023-03-13T01:40:21;98371.19;;;10.80;72.56
30021;BME280;16861;52.294;7.760;2023-03-13T01:42:52;98360.91;;;10.77;72.95
30021;BME280;16861;52.294;7.760;2023-03-13T01:45:57;98356.16;;;10.71;73.11
30021;BME280;16861;52.294;7.760;2023-03-13T01:48:32;98347.41;;;10.71;73.38
30021;BME280;16861;52.294;7.760;2023-03-13T01:51:02;98338.81;;;10.68;73.61
30021;BME280;16861;52.294;7.760;2023-03-13T01:53:32;98331.88;;;10.67;73.51
30021;BME280;16861;52.294;7.760;2023-03-13T01:56:01;98324.91;;;10.66;73.72
30021;BME280;16861;52.294;7.760;2023-03-13T01:58:30;98326.00;;;10.64;73.93
30021;BME280;16861;52.294;7.760;2023-03-13T02:00:57;98314.66;;;10.63;74.19
30021;BME280;16861;52.294;7.760;2023-03-13T02:03:25;98305.22;;;10.61;74.47
30021;BME280;16861;52.294;7.760;2023-03-13T02:05:54;98294.81;;;10.59;74.47
30021;BME280;16861;52.294;7.760;2023-03-13T02:08:25;98293.28;;;10.57;74.91
30021;BME280;16861;52.294;7.760;2023-03-13T02:11:09;98277.50;;;10.57;74.52
30021;BME280;16861;52.294;7.760;2023-03-13T02:13:38;98266.00;;;10.58;74.83
30021;BME280;16861;52.294;7.760;2023-03-13T02:16:05;98255.47;;;10.58;75.10
30021;BME280;16861;52.294;7.760;2023-03-13T02:18:34;98246.97;;;10.54;75.20
30021;BME280;16861;52.294;7.760;2023-03-13T02:21:09;98236.72;;;10.51;75.67
30021;BME280;16861;52.294;7.760;2023-03-13T02:23:43;98218.31;;;10.51;75.77
30021;BME280;16861;52.294;7.760;2023-03-13T02:26:14;98217.22;;;10.53;75.90
30021;BME280;16861;52.294;7.760;2023-03-13T02:28:41;98205.03;;;10.52;76.11
30021;BME280;16861;52.294;7.760;2023-03-13T02:31:08;98206.81;;;10.52;76.26
30021;BME280;16861;52.294;7.760;2023-03-13T02:33:39;98199.75;;;10.52;76.39
30021;BME280;16861;52.294;7.760;2023-03-13T02:36:07;98196.88;;;10.55;76.21
30021;BME280;16861;52.294;7.760;2023-03-13T02:38:38;98187.19;;;10.56;76.52
30021;BME280;16861;52.294;7.760;2023-03-13T02:41:08;98179.16;;;10.58;76.66
30021;BME280;16861;52.294;7.760;2023-03-13T02:43:36;98172.25;;;10.57;76.83
30021;BME280;16861;52.294;7.760;2023-03-13T02:46:10;98166.13;;;10.56;77.17
30021;BME280;16861;52.294;7.760;2023-03-13T02:48:43;98163.63;;;10.54;77.21
30021;BME280;16861;52.294;7.760;2023-03-13T02:51:39;98153.09;;;10.54;77.54
30021;BME280;16861;52.294;7.760;2023-03-13T02:54:13;98159.22;;;10.55;77.50
30021;BME280;16861;52.294;7.760;2023-03-13T02:56:43;98155.72;;;10.54;77.75
30021;BME280;16861;52.294;7.760;2023-03-13T02:59:11;98153.09;;;10.54;77.63
30021;BME280;16861;52.294;7.760;2023-03-13T03:01:37;98145.94;;;10.57;77.77
30021;BME280;16861;52.294;7.760;2023-03-13T03:04:04;98145.09;;;10.56;77.98
30021;BME280;16861;52.294;7.760;2023-03-13T03:06:30;98144.25;;;10.55;78.19
30021;BME280;16861;52.294;7.760;2023-03-13T03:08:58;98126.66;;;10.56;78.21
30021;BME280;16861;52.294;7.760;2023-03-13T03:11:24;98124.28;;;10.53;78.83
30021;BME280;16861;52.294;7.760;2023-03-13T03:13:50;98125.94;;;10.54;78.81
30021;BME280;16861;52.294;7.760;2023-03-13T03:16:17;98106.72;;;10.53;79.07
30021;BME280;16861;52.294;7.760;2023-03-13T03:18:44;98127.63;;;10.55;79.25
30021;BME280;16861;52.294;7.760;2023-03-13T03:21:10;98105.75;;;10.54;79.23
30021;BME280;16861;52.294;7.760;2023-03-13T03:23:37;98097.84;;;10.54;79.54
30021;BME280;16861;52.294;7.760;2023-03-13T03:26:05;98096.88;;;10.55;79.75
30021;BME280;16861;52.294;7.760;2023-03-13T03:28:32;98087.22;;;10.56;79.59
30021;BME280;16861;52.294;7.760;2023-03-13T03:31:10;98090.81;;;10.55;80.13
30021;BME280;16861;52.294;7.760;2023-03-13T03:33:37;98078.94;;;10.61;79.76
30021;BME280;16861;52.294;7.760;2023-03-13T03:36:09;98068.41;;;10.61;80.05
30021;BME280;16861;52.294;7.760;2023-03-13T03:38:36;98061.34;;;10.61;80.12
30021;BME280;16861;52.294;7.760;2023-03-13T03:41:06;98072.56;;;10.63;80.29
30021;BME280;16861;52.294;7.760;2023-03-13T03:43:33;98051.53;;;10.63;80.51
30021;BME280;16861;52.294;7.760;2023-03-13T03:46:00;98041.00;;;10.63;80.65
30021;BME280;16861;52.294;7.760;2023-03-13T03:48:27;98038.25;;;10.65;80.74
30021;BME280;16861;52.294;7.760;2023-03-13T03:50:53;98037.28;;;10.66;80.76
30021;BME280;16861;52.294;7.760;2023-03-13T03:53:20;98025.78;;;10.67;81.14
30021;BME280;16861;52.294;7.760;2023-03-13T03:55:46;98053.75;;;10.68;81.15
30021;BME280;16861;52.294;7.760;2023-03-13T03:58:13;98033.41;;;10.70;81.08
30021;BME280;16861;52.294;7.760;2023-03-13T04:00:42;98027.19;;;10.71;81.44
30021;BME280;16861;52.294;7.760;2023-03-13T04:03:09;98019.03;;;10.74;81.15
30021;BME280;16861;52.294;7.760;2023-03-13T04:05:38;98039.00;;;10.77;80.94
30021;BME280;16861;52.294;7.760;2023-03-13T04:08:07;98020.56;;;10.77;81.54
30021;BME280;16861;52.294;7.760;2023-03-13T04:10:33;98016.00;;;10.79;81.72
30021;BME280;16861;52.294;7.760;2023-03-13T04:13:02;98026.38;;;10.80;81.60
30021;BME280;16861;52.294;7.760;2023-03-13T04:15:28;98024.19;;;10.86;81.32
30021;BME280;16861;52.294;7.760;2023-03-13T04:17:55;98031.16;;;10.87;81.72
30021;BME280;16861;52.294;7.760;2023-03-13T04:20:22;98015.34;;;10.87;81.79
30021;BME280;16861;52.294;7.760;2023-03-13T04:22:49;98019.50;;;10.89;81.85
30021;BME280;16861;52.294;7.760;2023-03-13T04:25:15;98011.47;;;10.91;81.97
30021;BME280;16861;52.294;7.760;2023-03-13T04:27:42;98012.84;;;10.95;82.00
30021;BME280;16861;52.294;7.760;2023-03-13T04:30:09;98008.44;;;10.95;82.21
30021;BME280;16861;52.294;7.760;2023-03-13T04:32:36;98005.81;;;10.95;82.33
30021;BME280;16861;52.294;7.760;2023-03-13T04:35:02;98003.72;;;10.99;82.58
30021;BME280;16861;52.294;7.760;2023-03-13T04:37:29;97987.69;;;11.02;82.63
30021;BME280;16861;52.294;7.760;2023-03-13T04:39:56;97982.16;;;11.05;82.77
30021;BME280;16861;52.294;7.760;2023-03-13T04:42:22;97985.47;;;11.07;82.92
30021;BME280;16861;52.294;7.760;2023-03-13T04:44:49;97989.50;;;11.12;82.76
30021;BME280;16861;52.294;7.760;2023-03-13T04:47:15;97986.59;;;11.15;82.82
30021;BME280;16861;52.294;7.760;2023-03-13T04:49:42;97982.00;;;11.17;83.30
30021;BME280;16861;52.294;7.760;2023-03-13T04:52:08;97990.75;;;11.17;83.59
30021;BME280;16861;52.294;7.760;2023-03-13T04:54:35;97984.25;;;11.21;83.81
30021;BME280;16861;52.294;7.760;2023-03-13T04:57:01;97983.88;;;11.26;83.83
30021;BME280;16861;52.294;7.760;2023-03-13T04:59:28;97963.88;;;11.33;83.67
30021;BME280;16861;52.294;7.760;2023-03-13T05:01:54;97974.16;;;11.37;83.63
30021;BME280;16861;52.294;7.760;2023-03-13T05:04:21;97965.16;;;11.39;83.76
30021;BME280;16861;52.294;7.760;2023-03-13T05:06:47;97964.03;;;11.42;83.91
30021;BME280;16861;52.294;7.760;2023-03-13T05:09:14;97952.25;;;11.46;83.90
30021;BME280;16861;52.294;7.760;2023-03-13T05:11:40;97946.59;;;11.51;83.78
30021;BME280;16861;52.294;7.760;2023-03-13T05:14:08;97955.88;;;11.55;83.61
30021;BME280;16861;52.294;7.760;2023-03-13T05:16:37;97956.44;;;11.58;83.64
30021;BME280;16861;52.294;7.760;2023-03-13T05:19:04;97969.47;;;11.60;84.26
30021;BME280;16861;52.294;7.760;2023-03-13T05:21:30;97934.78;;;11.65;83.96
30021;BME280;16861;52.294;7.760;2023-03-13T05:23:57;97936.28;;;11.67;84.21
30021;BME280;16861;52.294;7.760;2023-03-13T05:26:23;97935.03;;;11.71;84.27
30021;BME280;16861;52.294;7.760;2023-03-13T05:28:50;97918.81;;;11.76;84.41
30021;BME280;16861;52.294;7.760;2023-03-13T05:31:16;97921.19;;;11.79;84.47
30021;BME280;16861;52.294;7.760;2023-03-13T05:33:43;97925.19;;;11.83;84.24
30021;BME280;16861;52.294;7.760;2023-03-13T05:36:09;97914.34;;;11.86;84.26
30021;BME280;16861;52.294;7.760;2023-03-13T05:38:36;97915.06;;;11.89;84.72
30021;BME280;16861;52.294;7.760;2023-03-13T05:41:03;97928.91;;;11.91;84.86
30021;BME280;16861;52.294;7.760;2023-03-13T05:43:29;97918.09;;;11.94;85.14
30021;BME280;16861;52.294;7.760;2023-03-13T05:45:56;97905.31;;;11.99;85.17
30021;BME280;16861;52.294;7.760;2023-03-13T05:48:22;97919.88;;;12.03;84.92
30021;BME280;16861;52.294;7.760;2023-03-13T05:50:49;97924.34;;;12.03;85.40
30021;BME280;16861;52.294;7.760;2023-03-13T05:53:15;97906.97;;;12.10;85.73
30021;BME280;16861;52.294;7.760;2023-03-13T05:55:42;97916.00;;;12.17;85.14
30021;BME280;16861;52.294;7.760;2023-03-13T05:58:08;97909.47;;;12.21;85.14
30021;BME280;16861;52.294;7.760;2023-03-13T06:00:35;97922.19;;;12.26;84.88
30021;BME280;16861;52.294;7.760;2023-03-13T06:03:01;97909.72;;;12.28;85.21
30021;BME280;16861;52.294;7.760;2023-03-13T06:05:28;97896.25;;;12.31;85.43
30021;BME280;16861;52.294;7.760;2023-03-13T06:07:54;97912.75;;;12.33;85.67
30021;BME280;16861;52.294;7.760;2023-03-13T06:10:21;97906.06;;;12.39;85.79
30021;BME280;16861;52.294;7.760;2023-03-13T06:12:53;97886.19;;;12.45;85.51
30021;BME280;16861;52.294;7.760;2023-03-13T06:15:20;97903.38;;;12.49;85.67
30021;BME280;16861;52.294;7.760;2023-03-13T06:17:47;97909.06;;;12.54;85.46
30021;BME280;16861;52.294;7.760;2023-03-13T06:20:14;97900.69;;;12.59;85.45
30021;BME280;16861;52.294;7.760;2023-03-13T06:22:40;97902.75;;;12.65;85.47
30021;BME280;16861;52.294;7.760;2023-03-13T06:25:07;97897.19;;;12.68;85.47
30021;BME280;16861;52.294;7.760;2023-03-13T06:27:34;97911.88;;;12.71;85.21
30021;BME280;16861;52.294;7.760;2023-03-13T06:30:01;97904.50;;;12.74;85.49
30021;BME280;16861;52.294;7.760;2023-03-13T06:32:28;97918.22;;;12.78;85.34
30021;BME280;16861;52.294;7.760;2023-03-13T06:34:55;97900.16;;;12.83;85.07
30021;BME280;16861;52.294;7.760;2023-03-13T06:37:21;97878.56;;;12.88;84.94
30021;BME280;16861;52.294;7.760;2023-03-13T06:39:48;97894.66;;;12.95;84.71
30021;BME280;16861;52.294;7.760;2023-03-13T06:42:14;97899.78;;;12.96;84.56
30021;BME280;16861;52.294;7.760;2023-03-13T06:44:41;97899.50;;;12.99;84.35
30021;BME280;16861;52.294;7.760;2023-03-13T06:47:07;97902.66;;;13.03;84.24
30021;BME280;16861;52.294;7.760;2023-03-13T06:49:34;97892.78;;;13.05;84.32
30021;BME280;16861;52.294;7.760;2023-03-13T06:52:01;97901.22;;;13.09;84.31
30021;BME280;16861;52.294;7.760;2023-03-13T06:54:27;97887.75;;;13.12;84.22
30021;BME280;16861;52.294;7.760;2023-03-13T06:56:54;97914.66;;;13.15;84.12
30021;BME280;16861;52.294;7.760;2023-03-13T06:59:20;97896.69;;;13.19;84.07
30021;BME280;16861;52.294;7.760;2023-03-13T07:01:47;97912.41;;;13.21;83.77
30021;BME280;16861;52.294;7.760;2023-03-13T07:04:13;97908.47;;;13.25;83.82
30021;BME280;16861;52.294;7.760;2023-03-13T07:06:40;97899.56;;;13.26;83.73
30021;BME280;16861;52.294;7.760;2023-03-13T07:09:06;97903.56;;;13.30;83.71
30021;BME280;16861;52.294;7.760;2023-03-13T08:13:02;97855.69;;;13.96;80.46
30021;BME280;16861;52.294;7.760;2023-03-13T08:15:29;97855.84;;;13.94;79.90
30021;BME280;16861;52.294;7.760;2023-03-13T08:17:55;97868.91;;;13.96;80.42
30021;BME280;16861;52.294;7.760;2023-03-13T08:20:22;97884.31;;;14.01;79.97
30021;BME280;16861;52.294;7.760;2023-03-13T08:22:49;97858.53;;;14.03;79.83
30021;BME280;16861;52.294;7.760;2023-03-13T08:25:16;97850.28;;;14.06;80.06
30021;BME280;16861;52.294;7.760;2023-03-13T08:27:42;97865.84;;;14.09;80.00
30021;BME280;16861;52.294;7.760;2023-03-13T08:30:09;97876.09;;;14.12;79.80
30021;BME280;16861;52.294;7.760;2023-03-13T08:32:37;97878.59;;;14.14;79.91
30021;BME280;16861;52.294;7.760;2023-03-13T08:35:04;97847.00;;;14.12;79.96
30021;BME280;16861;52.294;7.760;2023-03-13T08:37:31;97844.22;;;14.14;79.70
30021;BME280;16861;52.294;7.760;2023-03-13T08:39:58;97862.28;;;14.18;79.61
30021;BME280;16861;52.294;7.760;2023-03-13T08:42:24;97863.06;;;14.19;79.37
30021;BME280;16861;52.294;7.760;2023-03-13T08:44:51;97885.75;;;14.22;79.22
30021;BME280;16861;52.294;7.760;2023-03-13T08:47:17;97870.41;;;14.25;79.31
30021;BME280;16861;52.294;7.760;2023-03-13T08:49:44;97875.34;;;14.28;79.16
30021;BME280;16861;52.294;7.760;2023-03-13T08:52:10;97864.63;;;14.30;79.11
30021;BME280;16861;52.294;7.760;2023-03-13T08:54:37;97861.66;;;14.33;79.11
30021;BME280;16861;52.294;7.760;2023-03-13T08:57:03;97887.81;;;14.36;78.98
30021;BME280;16861;52.294;7.760;2023-03-13T08:59:30;97855.72;;;14.39;79.39
30021;BME280;16861;52.294;7.760;2023-03-13T09:01:57;97869.66;;;14.41;79.19
30021;BME280;16861;52.294;7.760;2023-03-13T09:04:23;97855.09;;;14.45;79.22
30021;BME280;16861;52.294;7.760;2023-03-13T09:06:50;97856.59;;;14.48;79.27
30021;BME280;16861;52.294;7.760;2023-03-13T09:09:16;97873.97;;;14.51;78.58
30021;BME280;16861;52.294;7.760;2023-03-13T09:11:43;97864.38;;;14.50;78.04
30021;BME280;16861;52.294;7.760;2023-03-13T09:14:10;97854.28;;;14.53;78.60
30021;BME280;16861;52.294;7.760;2023-03-13T09:16:36;97862.22;;;14.53;78.65
30021;BME280;16861;52.294;7.760;2023-03-13T09:19:03;97873.47;;;14.55;78.78
30021;BME280;16861;52.294;7.760;2023-03-13T09:21:32;97872.66;;;14.55;77.98
30021;BME280;16861;52.294;7.760;2023-03-13T09:23:59;97858.94;;;14.59;78.07
30021;BME280;16861;52.294;7.760;2023-03-13T09:26:27;97872.69;;;14.63;78.54
30021;BME280;16861;52.294;7.760;2023-03-13T09:28:54;97844.22;;;14.65;78.85
30021;BME280;16861;52.294;7.760;2023-03-13T09:31:39;97850.84;;;14.69;75.65
30021;BME280;16861;52.294;7.760;2023-03-13T09:34:06;97838.16;;;14.81;78.83
30021;BME280;16861;52.294;7.760;2023-03-13T09:36:33;97842.84;;;14.88;78.35
30021;BME280;16861;52.294;7.760;2023-03-13T09:39:00;97849.81;;;14.97;78.26
30021;BME280;16861;52.294;7.760;2023-03-13T09:41:52;97837.19;;;14.99;72.87
30021;BME280;16861;52.294;7.760;2023-03-13T09:44:32;97847.66;;;15.09;73.58
30021;BME280;16861;52.294;7.760;2023-03-13T09:47:16;97849.31;;;15.18;75.64
30021;BME280;16861;52.294;7.760;2023-03-13T09:49:52;97834.75;;;15.22;74.91
30021;BME280;16861;52.294;7.760;2023-03-13T09:52:25;97853.81;;;15.26;74.30
30021;BME280;16861;52.294;7.760;2023-03-13T09:54:58;97830.44;;;15.30;75.17
30021;BME280;16861;52.294;7.760;2023-03-13T09:57:35;97827.63;;;15.31;74.18
30021;BME280;16861;52.294;7.760;2023-03-13T10:00:30;97847.84;;;15.32;72.10
30021;BME280;16861;52.294;7.760;2023-03-13T10:03:04;97822.16;;;15.41;75.51
30021;BME280;16861;52.294;7.760;2023-03-13T10:05:34;97824.97;;;15.48;76.12
30021;BME280;16861;52.294;7.760;2023-03-13T10:08:12;97843.03;;;15.53;73.36
30021;BME280;16861;52.294;7.760;2023-03-13T10:10:54;97828.75;;;15.62;73.85
30021;BME280;16861;52.294;7.760;2023-03-13T10:16:19;97818.97;;;15.79;72.42
30021;BME280;16861;52.294;7.760;2023-03-13T10:18:52;97825.72;;;15.90;72.81
30021;BME280;16861;52.294;7.760;2023-03-13T10:21:22;97826.75;;;15.97;74.05
30021;BME280;16861;52.294;7.760;2023-03-13T10:23:58;97819.44;;;15.99;70.80
30021;BME280;16861;52.294;7.760;2023-03-13T10:26:29;97842.16;;;16.02;72.99
30021;BME280;16861;52.294;7.760;2023-03-13T10:29:04;97811.31;;;16.01;71.95
30021;BME280;16861;52.294;7.760;2023-03-13T10:31:38;97800.84;;;15.99;72.60
30021;BME280;16861;52.294;7.760;2023-03-13T10:34:09;97830.06;;;15.99;73.21
30021;BME280;16861;52.294;7.760;2023-03-13T10:36:44;97794.72;;;15.99;70.29
30021;BME280;16861;52.294;7.760;2023-03-13T10:39:18;97848.47;;;16.01;69.88
30021;BME280;16861;52.294;7.760;2023-03-13T10:41:58;97817.78;;;15.98;69.21
30021;BME280;16861;52.294;7.760;2023-03-13T10:44:34;97803.50;;;16.08;75.20
30021;BME280;16861;52.294;7.760;2023-03-13T10:47:02;97817.75;;;16.15;74.73
30021;BME280;16861;52.294;7.760;2023-03-13T10:49:30;97809.72;;;16.23;75.11
30021;BME280;16861;52.294;7.760;2023-03-13T10:52:02;97825.59;;;16.32;72.94
30021;BME280;16861;52.294;7.760;2023-03-13T10:54:31;97800.88;;;16.39;73.90
30021;BME280;16861;52.294;7.760;2023-03-13T10:57:28;97806.47;;;16.45;69.26
30021;BME280;16861;52.294;7.760;2023-03-13T10:59:56;97824.19;;;16.52;72.26
30021;BME280;16861;52.294;7.760;2023-03-13T11:02:43;97791.84;;;16.49;64.31
30021;BME280;16861;52.294;7.760;2023-03-13T11:07:51;97775.72;;;16.59;70.88
30021;BME280;16861;52.294;7.760;2023-03-13T11:10:25;97777.19;;;16.61;71.22
30021;BME280;16861;52.294;7.760;2023-03-13T11:12:57;97768.50;;;16.67;72.24
30021;BME280;16861;52.294;7.760;2023-03-13T11:15:31;97746.19;;;16.77;69.04
30021;BME280;16861;52.294;7.760;2023-03-13T11:18:06;97752.72;;;16.89;69.53
30021;BME280;16861;52.294;7.760;2023-03-13T11:20:39;97759.13;;;17.03;70.20
30021;BME280;16861;52.294;7.760;2023-03-13T11:28:33;97747.28;;;17.29;63.74
30021;BME280;16861;52.294;7.760;2023-03-13T11:34:20;97741.41;;;17.34;58.13
30021;BME280;16861;52.294;7.760;2023-03-13T11:37:02;97754.19;;;17.39;60.63
30021;BME280;16861;52.294;7.760;2023-03-13T11:58:40;97712.00;;;17.66;59.52
30021;BME280;16861;52.294;7.760;2023-03-13T12:06:30;97734.56;;;17.70;58.56
30021;BME280;16861;52.294;7.760;2023-03-13T12:09:14;97696.28;;;17.71;60.73
30021;BME280;16861;52.294;7.760;2023-03-13T12:12:00;97713.63;;;17.67;57.85
30021;BME280;16861;52.294;7.760;2023-03-13T12:14:46;97705.94;;;17.72;58.85
30021;BME280;16861;52.294;7.760;2023-03-13T12:17:39;97684.28;;;17.75;57.77
30021;BME280;16861;52.294;7.760;2023-03-13T12:20:18;97691.97;;;17.85;61.48
30021;BME280;16861;52.294;7.760;2023-03-13T12:28:42;97702.63;;;17.85;57.80
30021;BME280;16861;52.294;7.760;2023-03-13T12:31:24;97693.81;;;17.84;58.54
30021;BME280;16861;52.294;7.760;2023-03-13T12:36:45;97669.19;;;18.13;62.95
30021;BME280;16861;52.294;7.760;2023-03-13T12:39:50;97661.34;;;18.26;55.26
30021;BME280;16861;52.294;7.760;2023-03-13T12:44:56;97643.06;;;18.67;64.09
30021;BME280;16861;52.294;7.760;2023-03-13T12:58:51;97616.13;;;18.55;60.93
30021;BME280;16861;52.294;7.760;2023-03-13T13:01:02;97626.97;;;18.53;60.44
30021;BME280;16861;52.294;7.760;2023-03-13T13:03:35;97612.19;;;18.51;58.18
30021;BME280;16861;52.294;7.760;2023-03-13T13:06:04;97602.75;;;18.48;60.39
30021;BME280;16861;52.294;7.760;2023-03-13T13:08:38;97612.19;;;18.51;58.71
30021;BME280;16861;52.294;7.760;2023-03-13T13:14:04;97612.00;;;18.81;61.95
30021;BME280;16861;52.294;7.760;2023-03-13T13:16:51;97595.03;;;19.17;63.08
30021;BME280;16861;52.294;7.760;2023-03-13T13:24:57;97593.88;;;19.75;57.43
30021;BME280;16861;52.294;7.760;2023-03-13T13:29:58;97590.97;;;19.77;58.48
30021;BME280;16861;52.294;7.760;2023-03-13T13:32:43;97578.84;;;19.67;49.28
30021;BME280;16861;52.294;7.760;2023-03-13T13:35:32;97581.75;;;19.73;48.51
30021;BME280;16861;52.294;7.760;2023-03-13T13:43:37;97573.16;;;19.98;47.92
30021;BME280;16861;52.294;7.760;2023-03-13T13:46:26;97587.38;;;19.98;55.55
30021;BME280;16861;52.294;7.760;2023-03-13T13:51:34;97577.44;;;19.85;53.25
30021;BME280;16861;52.294;7.760;2023-03-13T13:54:30;97573.97;;;19.91;55.82
30021;BME280;16861;52.294;7.760;2023-03-13T13:57:06;97579.97;;;20.00;50.59
30021;BME280;16861;52.294;7.760;2023-03-13T13:59:38;97583.28;;;20.16;56.74
30021;BME280;16861;52.294;7.760;2023-03-13T14:07:22;97564.81;;;20.28;52.95
30021;BME280;16861;52.294;7.760;2023-03-13T14:12:30;97564.19;;;20.60;55.91
30021;BME280;16861;52.294;7.760;2023-03-13T14:15:08;97561.72;;;20.65;47.61
30021;BME280;16861;52.294;7.760;2023-03-13T14:17:41;97557.19;;;20.72;50.82
30021;BME280;16861;52.294;7.760;2023-03-13T14:22:57;97546.53;;;20.52;50.20
30021;BME280;16861;52.294;7.760;2023-03-13T14:25:39;97567.28;;;20.36;49.42
30021;BME280;16861;52.294;7.760;2023-03-13T14:28:18;97535.03;;;20.31;47.18
30021;BME280;16861;52.294;7.760;2023-03-13T14:30:47;97538.28;;;20.33;51.55
30021;BME280;16861;52.294;7.760;2023-03-13T14:33:14;97530.91;;;20.35;51.31
30021;BME280;16861;52.294;7.760;2023-03-13T14:35:41;97526.38;;;20.36;52.56
30021;BME280;16861;52.294;7.760;2023-03-13T14:38:22;97550.00;;;20.25;44.87
30021;BME280;16861;52.294;7.760;2023-03-13T14:40:50;97544.06;;;20.23;51.27
30021;BME280;16861;52.294;7.760;2023-03-13T14:43:34;97529.25;;;20.07;44.09
30021;BME280;16861;52.294;7.760;2023-03-13T14:46:21;97520.44;;;20.00;46.10
30021;BME280;16861;52.294;7.760;2023-03-13T14:48:53;97518.97;;;19.97;50.20
30021;BME280;16861;52.294;7.760;2023-03-13T14:51:26;97500.47;;;19.89;46.78
30021;BME280;16861;52.294;7.760;2023-03-13T14:53:58;97505.38;;;19.85;50.44
30021;BME280;16861;52.294;7.760;2023-03-13T14:59:17;97519.31;;;19.67;44.80
30021;BME280;16861;52.294;7.760;2023-03-13T15:01:45;97502.88;;;19.63;51.52
30021;BME280;16861;52.294;7.760;2023-03-13T15:04:11;97505.94;;;19.53;51.69
30021;BME280;16861;52.294;7.760;2023-03-13T15:06:38;97505.47;;;19.43;51.15
30021;BME280;16861;52.294;7.760;2023-03-13T15:09:15;97499.72;;;19.33;49.15
30021;BME280;16861;52.294;7.760;2023-03-13T15:11:58;97491.69;;;19.26;49.04
30021;BME280;16861;52.294;7.760;2023-03-13T15:14:38;97485.31;;;19.20;49.79
30021;BME280;16861;52.294;7.760;2023-03-13T15:17:31;97484.03;;;19.09;45.55
30021;BME280;16861;52.294;7.760;2023-03-13T15:19:58;97485.88;;;19.09;52.43
30021;BME280;16861;52.294;7.760;2023-03-13T15:22:28;97480.28;;;19.04;51.89
30021;BME280;16861;52.294;7.760;2023-03-13T15:24:55;97478.31;;;19.12;54.27
30021;BME280;16861;52.294;7.760;2023-03-13T15:27:32;97464.41;;;19.37;54.26
30021;BME280;16861;52.294;7.760;2023-03-13T15:29:58;97470.44;;;19.73;55.14
30021;BME280;16861;52.294;7.760;2023-03-13T15:32:32;97480.78;;;20.10;51.83
30021;BME280;16861;52.294;7.760;2023-03-13T15:35:00;97479.94;;;20.43;52.26
30021;BME280;16861;52.294;7.760;2023-03-13T15:37:29;97468.38;;;20.56;50.59
30021;BME280;16861;52.294;7.760;2023-03-13T15:39:56;97473.13;;;20.54;49.55
30021;BME280;16861;52.294;7.760;2023-03-13T15:42:23;97460.78;;;20.47;50.55
30021;BME280;16861;52.294;7.760;2023-03-13T15:44:50;97476.66;;;20.28;49.33
30021;BME280;16861;52.294;7.760;2023-03-13T15:47:19;97462.28;;;20.15;47.76
30021;BME280;16861;52.294;7.760;2023-03-13T15:49:46;97442.56;;;20.03;49.95
30021;BME280;16861;52.294;7.760;2023-03-13T15:52:15;97446.22;;;19.88;49.67
30021;BME280;16861;52.294;7.760;2023-03-13T15:54:45;97478.66;;;19.78;49.37
30021;BME280;16861;52.294;7.760;2023-03-13T15:57:23;97435.16;;;19.64;48.35